Time;durP1;ratioP1;P1;durP2;ratioP2;P2;SDS_P1;SDS_P2;PMS_P1;PMS_P2;Temp;Humidity;BMP_temperature;BMP_pressure;BME280_temperature;BME280_humidity;BME280_pressure;Samples;Min_cycle;Max_cycle;Signal;HPM_P1;HPM_P2
2022/02/08 00:01:30;;;;;;;21.30;3.85;;;6.90;80.50;;;;;;4994306;28;20054;-86
2022/02/08 00:03:57;;;;;;;15.60;3.80;;;7.00;80.50;;;;;;4993704;28;20050;-87
2022/02/08 00:06:37;;;;;;;19.67;4.63;;;7.00;80.60;;;;;;4994798;28;20061;-85
2022/02/08 00:09:05;;;;;;;20.73;4.50;;;7.00;80.60;;;;;;4995023;28;20050;-85
2022/02/08 00:11:33;;;;;;;18.92;3.92;;;7.00;80.70;;;;;;4979199;28;20548;-85
2022/02/08 00:14:00;;;;;;;22.45;4.47;;;7.00;80.70;;;;;;4994197;28;20526;-85
2022/02/08 00:16:28;;;;;;;19.23;4.10;;;7.00;80.70;;;;;;4993840;28;20418;-85
2022/02/08 00:18:55;;;;;;;22.42;4.35;;;7.10;80.80;;;;;;4994816;28;20058;-85
2022/02/08 00:21:22;;;;;;;23.00;4.40;;;7.10;80.90;;;;;;4994582;28;20392;-85
2022/02/08 00:23:49;;;;;;;23.25;5.28;;;7.10;81.00;;;;;;4994900;28;20415;-86
2022/02/08 00:26:16;;;;;;;21.48;4.05;;;7.10;81.10;;;;;;4994503;28;20065;-85
2022/02/08 00:28:43;;;;;;;19.67;3.83;;;7.10;81.20;;;;;;4994002;28;20046;-86
2022/02/08 00:31:10;;;;;;;19.98;5.15;;;7.20;81.30;;;;;;4994802;28;20046;-85
2022/02/08 00:33:37;;;;;;;19.27;4.20;;;7.20;81.20;;;;;;4994640;28;20042;-86
2022/02/08 00:36:04;;;;;;;19.05;4.15;;;7.20;81.30;;;;;;4994386;28;20038;-85
2022/02/08 00:38:33;;;;;;;19.50;4.85;;;7.20;81.30;;;;;;4994542;28;20423;-85
2022/02/08 00:41:02;;;;;;;15.10;3.75;;;7.20;81.40;;;;;;4989690;28;20055;-85
2022/02/08 00:43:37;;;;;;;12.80;3.70;;;7.20;81.40;;;;;;4994376;28;20050;-85
2022/02/08 00:46:13;;;;;;;18.75;5.13;;;7.20;81.40;;;;;;4994453;28;20058;-86
2022/02/08 00:48:42;;;;;;;15.55;4.82;;;7.20;81.40;;;;;;4994335;28;20054;-85
2022/02/08 00:51:11;;;;;;;14.65;4.43;;;7.30;81.40;;;;;;4992893;28;20049;-85
2022/02/08 00:53:38;;;;;;;17.33;4.60;;;7.30;81.50;;;;;;4994390;28;20602;-86
2022/02/08 00:56:04;;;;;;;17.85;3.85;;;7.30;81.50;;;;;;4992386;28;20062;-85
2022/02/08 00:58:32;;;;;;;14.13;4.10;;;7.30;81.60;;;;;;4995700;28;20514;-85
2022/02/08 01:00:59;;;;;;;14.80;4.65;;;7.30;81.60;;;;;;4994239;28;20050;-86
2022/02/08 01:03:26;;;;;;;15.30;3.85;;;7.30;81.60;;;;;;4993749;28;20077;-85
2022/02/08 01:06:04;;;;;;;16.08;3.78;;;7.40;81.60;;;;;;4994211;28;20042;-85
2022/02/08 01:08:34;;;;;;;22.83;4.75;;;7.40;81.70;;;;;;4994049;28;20050;-85
2022/02/08 01:11:02;;;;;;;17.25;4.15;;;7.40;81.70;;;;;;4989461;28;20065;-86
2022/02/08 01:13:30;;;;;;;14.52;3.72;;;7.40;81.90;;;;;;4994230;28;20050;-85
2022/02/08 01:15:58;;;;;;;11.18;3.38;;;7.40;82.00;;;;;;4993979;28;20049;-86
2022/02/08 01:18:27;;;;;;;11.52;3.88;;;7.40;82.10;;;;;;4992367;28;20492;-87
2022/02/08 01:20:54;;;;;;;14.77;3.58;;;7.40;82.30;;;;;;4992722;28;20054;-87
2022/02/08 01:23:21;;;;;;;14.77;3.58;;;7.40;82.40;;;;;;4993465;28;20078;-85
2022/02/08 01:25:56;;;;;;;8.15;3.17;;;7.50;82.60;;;;;;4992022;28;20054;-85
2022/02/08 01:28:36;;;;;;;9.05;3.22;;;7.50;82.80;;;;;;4993695;28;20057;-86
2022/02/08 01:31:07;;;;;;;10.82;3.53;;;7.60;82.90;;;;;;4993822;28;20050;-85
2022/02/08 01:34:07;;;;;;;14.48;3.80;;;7.60;83.10;;;;;;4993464;28;20057;-85
2022/02/08 01:44:16;;;;;;;14.43;3.90;;;7.80;83.80;;;;;;4989466;28;20057;-85
2022/02/08 01:47:07;;;;;;;11.55;3.80;;;7.90;84.00;;;;;;4994690;28;20054;-86
2022/02/08 01:49:49;;;;;;;13.05;3.97;;;7.90;84.10;;;;;;4993188;28;20057;-86
2022/02/08 01:52:19;;;;;;;11.57;3.30;;;7.90;84.20;;;;;;4993771;28;20054;-86
2022/02/08 01:54:45;;;;;;;11.82;3.78;;;7.90;84.20;;;;;;4993482;28;20046;-85
2022/02/08 01:57:13;;;;;;;11.75;3.53;;;8.00;84.30;;;;;;4993568;28;20050;-85
2022/02/08 01:59:40;;;;;;;12.05;3.60;;;8.00;84.40;;;;;;4993692;28;20073;-85
2022/02/08 02:02:07;;;;;;;14.25;4.10;;;8.00;84.40;;;;;;4992480;28;20046;-85
2022/02/08 02:04:34;;;;;;;12.52;3.67;;;8.00;84.50;;;;;;4993651;28;20054;-85
2022/02/08 02:07:02;;;;;;;12.43;3.53;;;8.10;84.50;;;;;;4993336;28;20522;-86
2022/02/08 02:09:29;;;;;;;6.70;3.20;;;8.10;84.50;;;;;;4993274;28;20050;-85
2022/02/08 02:11:57;;;;;;;10.40;3.53;;;8.20;84.50;;;;;;4993598;28;20073;-85
2022/02/08 02:14:24;;;;;;;11.38;3.15;;;8.20;84.50;;;;;;4992203;28;20524;-85
2022/02/08 02:19:24;;;;;;;11.40;4.18;;;8.20;84.50;;;;;;4993408;28;20058;-85
2022/02/08 02:21:51;;;;;;;10.80;3.88;;;8.20;84.50;;;;;;4993239;28;20499;-85
2022/02/08 02:24:18;;;;;;;11.68;3.53;;;8.30;84.50;;;;;;4992189;28;20047;-85
2022/02/08 02:26:45;;;;;;;7.15;3.40;;;8.30;84.50;;;;;;4993147;28;20518;-86
2022/02/08 02:29:14;;;;;;;12.35;3.70;;;8.30;84.50;;;;;;4992473;28;20050;-85
2022/02/08 02:31:44;;;;;;;9.40;3.15;;;8.30;84.50;;;;;;4992472;28;20046;-85
2022/02/08 02:34:14;;;;;;;9.10;3.17;;;8.30;84.50;;;;;;4995615;28;20431;-85
2022/02/08 02:36:41;;;;;;;10.02;3.08;;;8.30;84.50;;;;;;4996657;28;20400;-86
2022/02/08 02:39:08;;;;;;;8.23;3.00;;;8.40;84.50;;;;;;4996729;28;20057;-85
2022/02/08 02:41:39;;;;;;;10.63;3.55;;;8.40;84.40;;;;;;4997056;28;20423;-84
2022/02/08 02:44:08;;;;;;;11.95;3.28;;;8.40;84.40;;;;;;4992584;28;20062;-87
2022/02/08 02:46:36;;;;;;;5.95;2.60;;;8.40;84.40;;;;;;4996377;28;20089;-87
2022/02/08 02:49:04;;;;;;;10.13;3.65;;;8.40;84.30;;;;;;4996447;28;20054;-85
2022/02/08 02:51:32;;;;;;;7.38;3.45;;;8.40;84.30;;;;;;4996533;28;20039;-85
2022/02/08 02:54:00;;;;;;;8.48;3.80;;;8.40;84.20;;;;;;4996651;28;20050;-85
2022/02/08 02:56:27;;;;;;;10.30;3.55;;;8.40;84.20;;;;;;4996441;28;20038;-85
2022/02/08 02:59:01;;;;;;;10.80;3.90;;;8.40;84.20;;;;;;4995680;28;20519;-85
2022/02/08 03:01:36;;;;;;;10.95;4.25;;;8.40;84.30;;;;;;4995892;28;20057;-85
2022/02/08 03:04:21;;;;;;;10.32;3.47;;;8.40;84.30;;;;;;4996366;28;20050;-85
2022/02/08 03:20:21;;;;;;;6.90;2.70;;;8.40;84.50;;;;;;4996160;28;20411;-86
2022/02/08 03:22:48;;;;;;;9.90;3.50;;;8.40;84.50;;;;;;4995340;28;20062;-86
2022/02/08 03:25:15;;;;;;;10.15;3.28;;;8.50;84.50;;;;;;4995987;28;20046;-85
2022/02/08 03:27:42;;;;;;;8.75;3.70;;;8.40;84.60;;;;;;4995702;28;20050;-85
2022/02/08 03:30:09;;;;;;;5.07;2.80;;;8.40;84.60;;;;;;4995580;28;20049;-85
2022/02/08 03:32:36;;;;;;;8.13;3.40;;;8.40;84.70;;;;;;4995915;28;20061;-86
2022/02/08 03:35:04;;;;;;;7.47;3.65;;;8.50;84.70;;;;;;4995265;28;20051;-85
2022/02/08 03:37:33;;;;;;;6.47;3.05;;;8.50;84.70;;;;;;4997140;28;20050;-85
2022/02/08 03:40:08;;;;;;;8.45;3.15;;;8.50;84.80;;;;;;4995613;28;20054;-85
2022/02/08 03:42:39;;;;;;;7.38;3.35;;;8.50;84.90;;;;;;4995650;28;20053;-86
2022/02/08 03:45:11;;;;;;;8.30;3.28;;;8.50;85.00;;;;;;4996287;28;20419;-86
2022/02/08 03:47:38;;;;;;;7.47;3.20;;;8.50;85.00;;;;;;4980567;28;20518;-85
2022/02/08 03:50:06;;;;;;;6.82;3.00;;;8.50;85.10;;;;;;4993697;28;20046;-86
2022/02/08 03:52:33;;;;;;;6.75;2.75;;;8.60;85.20;;;;;;4995088;28;20050;-85
2022/02/08 03:55:00;;;;;;;9.93;3.08;;;8.60;85.20;;;;;;4995486;28;20042;-85
2022/02/08 03:57:27;;;;;;;7.80;3.20;;;8.60;85.30;;;;;;4995062;28;20054;-86
2022/02/08 03:59:54;;;;;;;7.80;3.28;;;8.60;85.40;;;;;;4995440;28;20050;-85
2022/02/08 04:07:52;;;;;;;7.13;3.22;;;8.60;85.50;;;;;;4917288;29;20055;-85
2022/02/08 04:10:25;;;;;;;6.57;2.80;;;8.70;85.50;;;;;;4911821;29;20056;-86
2022/02/08 04:34:44;;;;;;;7.60;3.17;;;8.70;85.30;;;;;;4911610;29;20058;-87
2022/02/08 04:42:27;;;;;;;5.82;2.65;;;8.70;85.40;;;;;;4910952;29;20140;-87
2022/02/08 04:48:27;;;;;;;7.70;2.80;;;8.80;85.50;;;;;;4994319;28;20042;-86
2022/02/08 04:50:18;;;;;;;7.55;2.67;;;8.80;85.50;;;;;;4973018;28;20061;-87
2022/02/08 04:52:46;;;;;;;6.80;3.20;;;8.80;85.50;;;;;;4991694;28;20046;-87
2022/02/08 04:55:36;;;;;;;5.03;2.40;;;8.80;85.50;;;;;;4994381;28;20050;-87
2022/02/08 05:01:01;;;;;;;6.57;3.08;;;8.90;85.50;;;;;;4994181;28;20049;-87
2022/02/08 05:37:18;;;;;;;3.67;1.80;;;8.90;85.50;;;;;;4914738;29;20051;-85
2022/02/08 05:42:45;;;;;;;5.35;2.50;;;8.90;85.60;;;;;;4914821;29;20048;-85
2022/02/08 05:45:24;;;;;;;7.00;2.33;;;8.90;85.60;;;;;;4914667;29;20056;-85
2022/02/08 05:47:55;;;;;;;5.55;2.30;;;8.90;85.60;;;;;;4902015;29;20057;-86
2022/02/08 05:50:26;;;;;;;6.75;2.53;;;8.90;85.70;;;;;;4914690;29;20060;-85
2022/02/08 05:55:30;;;;;;;4.70;2.05;;;8.90;85.80;;;;;;4914294;29;20551;-86
2022/02/08 05:57:57;;;;;;;7.28;2.03;;;8.90;85.80;;;;;;4914493;29;20052;-85
2022/02/08 06:00:28;;;;;;;4.38;1.83;;;8.90;85.80;;;;;;4898910;29;20517;-86
2022/02/08 06:02:59;;;;;;;5.07;1.77;;;8.90;85.90;;;;;;4914736;29;20056;-86
2022/02/08 06:05:26;;;;;;;6.05;1.90;;;8.90;85.90;;;;;;4956925;28;20046;-85
2022/02/08 06:07:53;;;;;;;5.20;1.60;;;8.90;85.90;;;;;;4992995;28;20058;-85
2022/02/08 06:10:20;;;;;;;5.35;1.70;;;8.90;85.90;;;;;;4997244;28;20058;-85
2022/02/08 06:12:54;;;;;;;5.40;1.65;;;9.00;86.00;;;;;;4997264;28;20494;-85
2022/02/08 06:15:22;;;;;;;5.68;1.70;;;9.00;86.00;;;;;;4997326;28;20065;-87
2022/02/08 06:17:52;;;;;;;6.50;2.20;;;9.00;86.00;;;;;;4996097;28;20050;-86
2022/02/08 06:20:19;;;;;;;5.30;1.73;;;9.00;86.00;;;;;;4997188;28;20055;-86
2022/02/08 06:22:46;;;;;;;6.13;2.58;;;9.00;86.10;;;;;;4994023;28;20422;-86
2022/02/08 06:25:16;;;;;;;6.47;1.55;;;9.00;86.10;;;;;;4997089;28;20051;-86
2022/02/08 06:27:47;;;;;;;7.03;1.60;;;9.00;86.10;;;;;;4996993;28;20046;-87
2022/02/08 06:30:15;;;;;;;4.47;1.63;;;9.00;86.10;;;;;;4996956;28;20050;-86
2022/02/08 06:32:43;;;;;;;6.78;1.70;;;9.00;86.10;;;;;;4997096;28;20050;-87
2022/02/08 06:35:19;;;;;;;6.53;1.75;;;9.00;86.10;;;;;;4996163;28;20056;-86
2022/02/08 06:37:46;;;;;;;6.32;1.70;;;9.00;86.10;;;;;;4993819;28;20054;-86
2022/02/08 06:40:13;;;;;;;4.65;1.27;;;9.00;86.00;;;;;;4996889;28;20050;-86
2022/02/08 06:42:42;;;;;;;3.85;1.27;;;9.00;86.00;;;;;;4996966;28;20046;-87
2022/02/08 06:45:11;;;;;;;3.40;1.20;;;9.00;86.00;;;;;;4996758;28;20046;-86
2022/02/08 06:47:38;;;;;;;6.32;1.15;;;9.00;86.00;;;;;;4996786;28;20053;-86
2022/02/08 06:50:06;;;;;;;2.80;1.20;;;9.00;86.00;;;;;;4995694;28;20050;-85
2022/02/08 06:52:33;;;;;;;3.10;1.25;;;9.00;86.00;;;;;;4993595;28;20466;-85
2022/02/08 06:55:02;;;;;;;4.72;1.25;;;9.00;86.00;;;;;;4996408;28;20130;-87
2022/02/08 06:57:37;;;;;;;6.50;1.50;;;9.00;86.00;;;;;;4996398;28;20051;-87
2022/02/08 07:00:11;;;;;;;2.83;1.25;;;9.00;86.00;;;;;;4995076;28;20043;-87
2022/02/08 07:02:38;;;;;;;2.72;1.13;;;9.00;86.00;;;;;;4993617;28;20050;-85
2022/02/08 07:05:05;;;;;;;2.47;1.13;;;9.00;86.00;;;;;;4995030;28;20054;-86
2022/02/08 07:07:32;;;;;;;3.70;1.30;;;9.00;86.00;;;;;;4995522;28;20396;-86
2022/02/08 07:09:59;;;;;;;4.47;1.33;;;9.00;86.00;;;;;;4995839;28;20058;-86
2022/02/08 07:12:26;;;;;;;2.72;1.30;;;9.00;86.00;;;;;;4995884;28;20046;-86
2022/02/08 07:14:53;;;;;;;3.30;1.40;;;9.00;86.00;;;;;;4994329;28;20054;-86
2022/02/08 07:17:20;;;;;;;4.72;1.55;;;9.10;86.00;;;;;;4995875;28;20054;-86
2022/02/08 07:19:47;;;;;;;3.60;1.35;;;9.10;86.10;;;;;;5008703;28;20526;-85
2022/02/08 07:22:15;;;;;;;4.70;1.38;;;9.10;86.10;;;;;;4995022;28;20050;-85
2022/02/08 07:24:42;;;;;;;3.45;1.10;;;9.10;86.10;;;;;;4994423;28;20511;-85
2022/02/08 07:27:09;;;;;;;4.97;1.38;;;9.10;86.10;;;;;;4994493;28;20046;-85
2022/02/08 07:29:38;;;;;;;3.97;1.00;;;9.10;86.10;;;;;;4995218;28;20424;-85
2022/02/08 07:32:07;;;;;;;3.75;1.10;;;9.00;86.10;;;;;;4994740;28;20050;-85
2022/02/08 07:34:45;;;;;;;5.07;1.15;;;9.10;86.10;;;;;;4995146;28;20050;-86
2022/02/08 07:39:49;;;;;;;2.97;1.40;;;9.10;86.20;;;;;;4995345;28;20434;-85
2022/02/08 07:42:16;;;;;;;4.53;1.55;;;9.10;86.20;;;;;;4995486;28;20050;-86
2022/02/08 07:44:44;;;;;;;3.10;1.20;;;9.10;86.20;;;;;;4995024;28;20042;-86
2022/02/08 07:47:12;;;;;;;3.35;1.10;;;9.10;86.20;;;;;;4994444;28;20415;-86
2022/02/08 07:49:40;;;;;;;4.20;1.10;;;9.10;86.20;;;;;;4995300;28;20413;-86
2022/02/08 07:52:08;;;;;;;2.53;1.02;;;9.10;86.20;;;;;;4994862;28;20053;-85
2022/02/08 07:54:35;;;;;;;2.15;0.90;;;9.10;86.10;;;;;;4995150;28;20052;-85
2022/02/08 07:57:03;;;;;;;3.50;1.13;;;9.00;86.10;;;;;;4995046;28;20423;-85
2022/02/08 07:59:30;;;;;;;3.15;1.20;;;9.10;86.10;;;;;;4994728;28;20057;-85
2022/02/08 08:01:57;;;;;;;3.38;1.15;;;9.10;86.10;;;;;;4992937;28;20423;-87
2022/02/08 08:04:24;;;;;;;3.00;1.13;;;9.10;86.10;;;;;;4994675;28;20094;-87
2022/02/08 08:06:54;;;;;;;3.47;1.20;;;9.10;86.10;;;;;;4994566;28;20049;-87
2022/02/08 08:09:22;;;;;;;4.68;1.40;;;9.10;86.10;;;;;;4993399;28;20065;-87
2022/02/08 08:11:51;;;;;;;3.60;1.23;;;9.10;86.00;;;;;;4994977;28;20053;-86
2022/02/08 08:14:21;;;;;;;2.65;1.17;;;9.10;86.00;;;;;;4994071;28;20543;-86
2022/02/08 08:16:56;;;;;;;3.55;1.05;;;9.10;86.00;;;;;;4992080;28;20050;-86
2022/02/08 08:19:36;;;;;;;3.63;1.00;;;9.10;86.00;;;;;;4994412;28;20053;-86
2022/02/08 08:22:09;;;;;;;2.22;0.90;;;9.10;86.00;;;;;;4994581;28;20527;-85
2022/02/08 08:24:36;;;;;;;2.88;1.02;;;9.10;86.00;;;;;;4994970;28;20054;-85
2022/02/08 08:27:03;;;;;;;2.25;1.00;;;9.10;85.90;;;;;;4993792;28;20137;-85
2022/02/08 08:29:30;;;;;;;3.25;1.40;;;9.20;85.90;;;;;;4993773;28;20149;-85
2022/02/08 08:31:58;;;;;;;2.13;0.90;;;9.20;85.90;;;;;;4992694;28;20046;-85
2022/02/08 08:34:25;;;;;;;6.13;1.35;;;9.20;85.90;;;;;;4994701;28;20542;-87
2022/02/08 08:36:52;;;;;;;3.55;1.25;;;9.20;85.90;;;;;;4993612;28;20061;-87
2022/02/08 08:39:24;;;;;;;3.50;1.60;;;9.20;85.90;;;;;;4994469;28;20272;-87
2022/02/08 08:50:16;;;;;;;2.88;1.30;;;9.20;85.90;;;;;;4992261;28;20054;-85
2022/02/08 08:52:44;;;;;;;4.68;1.25;;;9.20;85.80;;;;;;4995199;28;20058;-85
2022/02/08 08:55:13;;;;;;;3.13;1.17;;;9.20;85.80;;;;;;4994443;28;20065;-86
2022/02/08 08:57:40;;;;;;;3.65;1.25;;;9.20;85.80;;;;;;4994244;28;20050;-86
2022/02/08 09:00:10;;;;;;;2.50;1.08;;;9.20;85.80;;;;;;4994356;28;20038;-86
2022/02/08 09:02:37;;;;;;;3.95;1.58;;;9.20;85.80;;;;;;4978703;28;20053;-86
2022/02/08 09:05:09;;;;;;;2.67;1.20;;;9.30;85.80;;;;;;4993646;28;20447;-86
2022/02/08 09:07:38;;;;;;;6.13;1.90;;;9.30;85.90;;;;;;4994076;28;20437;-87
2022/02/08 09:10:07;;;;;;;3.92;1.92;;;9.30;85.80;;;;;;4992927;28;20066;-85
2022/02/08 09:29:15;;;;;;;4.55;2.30;;;9.40;85.80;;;;;;4993912;28;20050;-85
2022/02/08 09:31:19;;;;;;;5.03;3.40;;;9.40;85.80;;;;;;4988035;28;20057;-85
2022/02/08 09:33:49;;;;;;;5.65;3.28;;;9.40;85.80;;;;;;4994047;28;20042;-85
2022/02/08 09:36:19;;;;;;;5.22;2.55;;;9.40;85.80;;;;;;4993885;28;20061;-85
2022/02/08 09:38:47;;;;;;;5.82;2.22;;;9.40;85.90;;;;;;4993820;28;20050;-85
2022/02/08 09:41:15;;;;;;;4.70;2.10;;;9.40;85.90;;;;;;4993244;28;20518;-85
2022/02/08 09:43:43;;;;;;;5.43;2.45;;;9.40;85.90;;;;;;4992599;28;20054;-85
2022/02/08 09:46:10;;;;;;;5.00;2.60;;;9.40;85.90;;;;;;4992165;28;20058;-85
2022/02/08 09:48:44;;;;;;;4.57;2.90;;;9.40;85.90;;;;;;4993415;28;20045;-85
2022/02/08 09:51:12;;;;;;;5.05;2.50;;;9.50;85.90;;;;;;4993761;28;20054;-85
2022/02/08 09:53:42;;;;;;;5.00;2.38;;;9.50;86.00;;;;;;4993725;28;20549;-84
2022/02/08 09:56:11;;;;;;;4.72;2.50;;;9.50;86.00;;;;;;4991602;28;20396;-85
2022/02/08 09:58:39;;;;;;;4.68;2.42;;;9.40;86.00;;;;;;4994150;28;20046;-85
2022/02/08 10:01:11;;;;;;;4.95;2.20;;;9.50;86.00;;;;;;4993299;28;20046;-85
2022/02/08 10:03:51;;;;;;;4.65;2.30;;;9.50;86.00;;;;;;4992423;28;20185;-86
2022/02/08 10:06:19;;;;;;;5.00;2.03;;;9.50;86.10;;;;;;4993498;28;20058;-87
2022/02/08 10:08:58;;;;;;;5.85;1.98;;;9.50;86.10;;;;;;4993218;28;20043;-86
2022/02/08 10:11:30;;;;;;;2.80;1.50;;;9.60;86.10;;;;;;4993679;28;20174;-86
2022/02/08 10:14:20;;;;;;;3.08;1.40;;;9.60;86.20;;;;;;4992911;28;20058;-86
2022/02/08 10:22:31;;;;;;;5.97;1.55;;;9.70;86.30;;;;;;4993681;28;20077;-86
2022/02/08 10:25:09;;;;;;;4.93;1.45;;;9.70;86.30;;;;;;4992170;28;20054;-85
2022/02/08 10:27:40;;;;;;;3.67;1.50;;;9.70;86.40;;;;;;4993252;28;20052;-85
2022/02/08 10:38:45;;;;;;;4.20;1.08;;;9.80;86.50;;;;;;4993457;28;20411;-85
2022/02/08 10:41:17;;;;;;;2.60;1.17;;;9.90;86.50;;;;;;4989763;28;20503;-85
2022/02/08 10:43:59;;;;;;;3.90;1.10;;;9.90;86.50;;;;;;4994080;28;20054;-85
2022/02/08 10:46:27;;;;;;;3.80;1.20;;;9.90;86.40;;;;;;4993194;28;20472;-85
2022/02/08 10:49:01;;;;;;;2.58;1.00;;;9.90;86.40;;;;;;4993123;28;20050;-85
2022/02/08 10:51:29;;;;;;;;;;;9.90;86.40;;;;;;4993512;28;20056;-85
2022/02/08 10:54:04;;;;;;;4.43;1.25;;;9.90;86.40;;;;;;4993744;28;19921;-85
2022/02/08 10:56:34;;;;;;;2.60;1.10;;;10.00;86.40;;;;;;4996940;28;20050;-85
2022/02/08 11:02:04;;;;;;;2.42;1.00;;;10.10;86.40;;;;;;4986542;28;20047;-85
2022/02/08 11:07:47;;;;;;;2.08;1.10;;;10.10;86.40;;;;;;4996249;28;19929;-85
2022/02/08 11:10:17;;;;;;;2.40;0.93;;;10.10;86.30;;;;;;4995779;28;20069;-85
2022/02/08 11:15:37;;;;;;;2.20;0.90;;;10.20;86.20;;;;;;4996265;28;20438;-85
2022/02/08 11:20:56;;;;;;;2.30;1.10;;;10.20;86.10;;;;;;4981960;28;20423;-87
2022/02/08 11:23:47;;;;;;;4.70;1.00;;;10.30;86.10;;;;;;4994988;28;20072;-87
2022/02/08 11:26:24;;;;;;;1.58;0.90;;;10.30;86.00;;;;;;4992339;28;20418;-87
2022/02/08 11:28:51;;;;;;;2.00;0.95;;;10.30;86.00;;;;;;4993508;28;20231;-87
2022/02/08 11:31:28;;;;;;;1.85;1.00;;;10.30;86.00;;;;;;4995803;28;20054;-86
2022/02/08 11:38:55;;;;;;;2.55;1.20;;;10.30;86.00;;;;;;4995966;28;20046;-86
2022/02/08 11:41:03;;;;;;;2.13;1.00;;;10.30;85.90;;;;;;4995725;28;20046;-85
2022/02/08 11:48:06;;;;;;;1.58;0.82;;;10.30;85.80;;;;;;4995754;28;20111;-85
2022/02/08 12:09:30;;;;;;;5.13;1.00;;;10.30;85.60;;;;;;4897080;29;20205;-85
2022/02/08 12:12:33;;;;;;;2.70;0.88;;;10.30;85.60;;;;;;4896972;29;20625;-85
2022/02/08 12:59:35;;;;;;;5.20;0.70;;;10.40;84.70;;;;;;4930024;29;20051;-85
2022/02/08 13:02:43;;;;;;;1.50;0.38;;;10.40;84.60;;;;;;4929567;29;20059;-85
2022/02/08 14:09:10;;;;;;;5.05;0.90;;;10.50;84.10;;;;;;4993361;28;20449;-85
2022/02/08 14:14:28;;;;;;;1.88;0.50;;;10.60;83.90;;;;;;4992612;28;20046;-85
2022/02/08 14:25:31;;;;;;;2.67;0.63;;;10.60;83.60;;;;;;4952373;28;20062;-85
2022/02/08 15:08:58;;;;;;;3.25;0.57;;;10.50;83.20;;;;;;4875908;29;20055;-85
2022/02/08 15:11:34;;;;;;;2.80;0.77;;;10.60;83.20;;;;;;4944207;28;20070;-85
2022/02/08 15:14:01;;;;;;;2.35;0.60;;;10.50;83.20;;;;;;4950821;29;20051;-85
2022/02/08 15:16:30;;;;;;;2.80;0.60;;;10.50;83.10;;;;;;4949799;28;20062;-85
2022/02/08 15:18:57;;;;;;;0.73;0.32;;;10.50;83.10;;;;;;4949282;28;20047;-85
2022/02/08 15:21:36;;;;;;;2.78;0.75;;;10.50;83.10;;;;;;4949597;28;20052;-85
2022/02/08 15:24:03;;;;;;;2.65;0.75;;;10.60;83.10;;;;;;4950278;29;20047;-86
2022/02/08 15:26:42;;;;;;;2.30;0.70;;;10.50;83.00;;;;;;4938714;28;20062;-86
2022/02/08 15:29:09;;;;;;;0.50;0.40;;;10.50;83.00;;;;;;4950893;29;20047;-87
2022/02/08 15:31:36;;;;;;;3.38;0.80;;;10.50;83.00;;;;;;4933922;29;20062;-86
2022/02/08 15:34:03;;;;;;;1.60;0.70;;;10.50;83.00;;;;;;4949452;28;20563;-86
2022/02/08 15:36:31;;;;;;;1.63;0.65;;;10.50;83.00;;;;;;4995639;28;20038;-86
2022/02/08 15:39:07;;;;;;;1.73;0.55;;;10.50;82.90;;;;;;4996111;28;20053;-85
2022/02/08 15:41:38;;;;;;;2.97;0.70;;;10.50;82.90;;;;;;4994449;28;20049;-85
2022/02/08 15:44:08;;;;;;;2.47;0.52;;;10.50;82.90;;;;;;4992886;28;20058;-85
2022/02/08 15:46:35;;;;;;;1.65;0.70;;;10.50;82.90;;;;;;4993431;28;20051;-84
2022/02/08 15:49:02;;;;;;;2.53;0.70;;;10.50;82.80;;;;;;4994798;28;20051;-87
2022/02/08 15:51:38;;;;;;;2.15;0.68;;;10.50;82.90;;;;;;4995037;28;20046;-86
2022/02/08 15:54:14;;;;;;;3.15;0.85;;;10.50;82.80;;;;;;4995063;28;20053;-86
2022/02/08 16:07:22;;;;;;;5.30;2.97;;;10.50;82.90;;;;;;4994924;28;20503;-84
2022/02/08 16:10:07;;;;;;;7.18;3.60;;;10.50;82.90;;;;;;4994517;28;20057;-85
2022/02/08 16:12:50;;;;;;;4.82;2.67;;;10.40;82.90;;;;;;4994747;28;20053;-84
2022/02/08 16:15:51;;;;;;;2.85;1.30;;;10.50;82.90;;;;;;4995052;28;20046;-85
2022/02/08 16:19:16;;;;;;;3.45;1.20;;;10.40;82.80;;;;;;4994250;28;20095;-85
2022/02/08 16:21:31;;;;;;;3.08;1.10;;;10.50;82.80;;;;;;4966533;28;20050;-85
2022/02/08 16:24:06;;;;;;;4.55;1.35;;;10.50;82.80;;;;;;4981580;28;20379;-85
2022/02/08 16:26:49;;;;;;;4.10;1.60;;;10.50;82.80;;;;;;4994577;28;20519;-85
2022/02/08 16:53:39;;;;;;;3.58;0.90;;;10.40;82.80;;;;;;4993524;28;20439;-84
2022/02/08 16:56:15;;;;;;;4.40;1.20;;;10.40;82.80;;;;;;4989573;28;20511;-84
2022/02/08 16:58:50;;;;;;;2.83;1.05;;;10.40;82.80;;;;;;4994909;28;20415;-84
2022/02/08 17:01:21;;;;;;;4.03;1.10;;;10.40;82.80;;;;;;4993209;28;20054;-84
2022/02/08 17:03:51;;;;;;;3.95;1.20;;;10.40;82.80;;;;;;4994497;28;20046;-84
2022/02/08 17:06:23;;;;;;;4.47;1.42;;;10.30;82.80;;;;;;4993911;28;20046;-85
2022/02/08 17:09:14;;;;;;;4.95;1.75;;;10.30;82.80;;;;;;4993278;28;20077;-85
2022/02/08 17:16:57;;;;;;;4.82;1.63;;;10.30;82.90;;;;;;4993134;28;20050;-85
2022/02/08 17:19:49;;;;;;;3.97;1.50;;;10.20;82.90;;;;;;4993910;28;20511;-85
2022/02/08 17:49:40;;;;;;;3.03;1.58;;;10.00;83.50;;;;;;4993386;28;20050;-85
2022/02/08 17:52:07;;;;;;;3.50;1.92;;;10.00;83.50;;;;;;4993602;28;20050;-85
2022/02/08 17:54:34;;;;;;;4.07;2.03;;;10.00;83.50;;;;;;4993700;28;20050;-85
2022/02/08 17:57:02;;;;;;;5.63;2.50;;;10.00;83.50;;;;;;4993639;28;20046;-85
2022/02/08 17:59:29;;;;;;;4.95;2.50;;;10.00;83.60;;;;;;4993305;28;20534;-84
2022/02/08 18:01:56;;;;;;;9.57;5.88;;;10.00;83.60;;;;;;4992867;28;20050;-85
2022/02/08 18:04:23;;;;;;;7.95;3.42;;;10.00;83.60;;;;;;4995160;28;20058;-85
2022/02/08 18:06:50;;;;;;;4.20;2.60;;;10.00;83.60;;;;;;4997384;28;20050;-85
2022/02/08 18:09:19;;;;;;;7.68;3.97;;;10.00;83.70;;;;;;4997353;28;20517;-85
2022/02/08 18:11:47;;;;;;;9.40;3.63;;;10.00;83.70;;;;;;4997462;28;20050;-85
2022/02/08 18:14:18;;;;;;;5.60;3.22;;;10.00;83.70;;;;;;4996377;28;20046;-85
2022/02/08 18:16:51;;;;;;;8.25;3.63;;;10.00;83.70;;;;;;4996544;28;20058;-85
2022/02/08 18:19:22;;;;;;;8.05;3.00;;;9.90;83.80;;;;;;4997248;28;20423;-86
2022/02/08 18:22:10;;;;;;;6.40;3.78;;;9.90;83.80;;;;;;4997317;28;20046;-85
2022/02/08 19:19:05;;;;;;;7.35;3.70;;;9.80;84.20;;;;;;4996382;28;20043;-85
2022/02/08 19:21:37;;;;;;;6.78;3.05;;;9.80;84.20;;;;;;4996110;28;20052;-86
2022/02/08 19:24:05;;;;;;;5.53;3.08;;;9.80;84.20;;;;;;4995159;28;20420;-86
2022/02/08 19:26:33;;;;;;;8.02;4.68;;;9.80;84.30;;;;;;4995830;28;20053;-85
2022/02/08 19:29:00;;;;;;;6.72;3.30;;;9.80;84.30;;;;;;4995271;28;20415;-85
2022/02/08 19:31:28;;;;;;;5.35;3.45;;;9.80;84.30;;;;;;4995950;28;20085;-85
2022/02/08 19:33:56;;;;;;;8.68;3.67;;;9.80;84.30;;;;;;4994592;28;20054;-86
2022/02/08 19:36:23;;;;;;;7.63;4.60;;;9.80;84.30;;;;;;4993015;28;20043;-85
2022/02/08 19:38:56;;;;;;;7.55;4.82;;;9.80;84.40;;;;;;4991422;28;20058;-85
2022/02/08 19:41:23;;;;;;;7.53;4.72;;;9.80;84.40;;;;;;4992018;28;20057;-85
2022/02/08 19:43:50;;;;;;;9.50;6.00;;;9.80;84.40;;;;;;4994637;28;20051;-84
2022/02/08 19:46:18;;;;;;;9.68;5.68;;;9.80;84.40;;;;;;4995377;28;20050;-85
2022/02/08 19:48:45;;;;;;;9.27;5.18;;;9.70;84.40;;;;;;4995048;28;20053;-85
2022/02/08 19:51:13;;;;;;;10.18;6.22;;;9.80;84.50;;;;;;4995254;28;20044;-87
2022/02/08 19:53:43;;;;;;;8.07;5.97;;;9.70;84.50;;;;;;4995220;28;20054;-86
2022/02/08 19:58:50;;;;;;;9.85;6.70;;;9.70;84.50;;;;;;4995849;28;20050;-86
2022/02/08 20:01:28;;;;;;;8.77;6.43;;;9.70;84.50;;;;;;4994970;28;20042;-85
2022/02/08 20:04:03;;;;;;;9.07;6.40;;;9.70;84.60;;;;;;4994682;28;20046;-85
2022/02/08 20:06:33;;;;;;;9.27;6.90;;;9.70;84.60;;;;;;4994990;28;20046;-85
2022/02/08 20:09:07;;;;;;;9.65;7.47;;;9.80;84.60;;;;;;4994638;28;20054;-85
2022/02/08 20:11:35;;;;;;;12.55;7.70;;;9.70;84.60;;;;;;4994602;28;20502;-85
2022/02/08 20:14:07;;;;;;;8.07;6.32;;;9.70;84.60;;;;;;4994141;28;20052;-85
2022/02/08 20:16:36;;;;;;;9.18;6.63;;;9.70;84.70;;;;;;4994250;28;20050;-86
2022/02/08 20:19:06;;;;;;;10.45;7.15;;;9.70;84.70;;;;;;4994824;28;20046;-84
2022/02/08 20:21:35;;;;;;;9.82;6.72;;;9.70;84.70;;;;;;4994686;28;20053;-85
2022/02/08 20:24:05;;;;;;;9.32;6.70;;;9.70;84.70;;;;;;4994158;28;20519;-85
2022/02/08 20:27:18;;;;;;;9.80;7.15;;;9.70;84.70;;;;;;4994149;28;20510;-85
2022/02/08 20:29:23;;;;;;;7.55;6.20;;;9.60;84.70;;;;;;4992683;28;20042;-85
2022/02/08 20:31:53;;;;;;;8.45;6.32;;;9.70;84.70;;;;;;4992123;28;20427;-85
2022/02/08 20:34:22;;;;;;;9.55;6.88;;;9.60;84.70;;;;;;4994467;28;20050;-85
2022/02/08 20:36:50;;;;;;;9.40;6.13;;;9.70;84.80;;;;;;4994301;28;20411;-85
2022/02/08 20:39:18;;;;;;;10.73;6.65;;;9.70;84.80;;;;;;4993753;28;20057;-85
2022/02/08 20:41:45;;;;;;;11.30;6.53;;;9.70;84.80;;;;;;4994513;28;20154;-85
2022/02/08 20:44:16;;;;;;;9.52;5.90;;;9.60;84.70;;;;;;4993579;28;20046;-85
2022/02/08 20:46:51;;;;;;;10.27;6.38;;;9.60;84.80;;;;;;4993640;28;20047;-84
2022/02/08 20:49:18;;;;;;;7.82;6.07;;;9.70;84.80;;;;;;4994234;28;20057;-85
2022/02/08 20:51:46;;;;;;;8.35;6.43;;;9.60;84.70;;;;;;4994175;28;20065;-85
2022/02/08 20:54:19;;;;;;;10.95;6.53;;;9.60;84.70;;;;;;4993568;28;20046;-84
2022/02/08 20:57:00;;;;;;;9.02;5.28;;;9.50;84.70;;;;;;4994132;28;20057;-85
2022/02/08 20:59:28;;;;;;;10.45;5.18;;;9.60;84.70;;;;;;4992981;28;20057;-85